sensor_id;sensor_type;location;lat;lon;timestamp;P1;durP1;ratioP1;P2;durP2;ratioP2
5612;SDS011;63463;53.586;9.928;2023-12-20T00:00:36;113.17;;;9.00;;
5612;SDS011;63463;53.586;9.928;2023-12-20T00:03:06;123.00;;;9.10;;
5612;SDS011;63463;53.586;9.928;2023-12-20T00:05:32;142.47;;;9.80;;
5612;SDS011;63463;53.586;9.928;2023-12-20T00:07:59;111.53;;;9.37;;
5612;SDS011;63463;53.586;9.928;2023-12-20T00:10:25;118.80;;;9.60;;
5612;SDS011;63463;53.586;9.928;2023-12-20T00:12:51;131.07;;;10.60;;
5612;SDS011;63463;53.586;9.928;2023-12-20T00:15:17;122.87;;;10.27;;
5612;SDS011;63463;53.586;9.928;2023-12-20T00:17:43;134.60;;;10.03;;
5612;SDS011;63463;53.586;9.928;2023-12-20T00:20:09;133.40;;;9.53;;
5612;SDS011;63463;53.586;9.928;2023-12-20T00:22:35;124.43;;;9.80;;
5612;SDS011;63463;53.586;9.928;2023-12-20T00:25:01;119.30;;;9.40;;
5612;SDS011;63463;53.586;9.928;2023-12-20T00:27:27;119.13;;;9.23;;
5612;SDS011;63463;53.586;9.928;2023-12-20T00:29:53;124.63;;;9.87;;
5612;SDS011;63463;53.586;9.928;2023-12-20T00:32:19;132.50;;;9.70;;
5612;SDS011;63463;53.586;9.928;2023-12-20T00:34:45;142.50;;;10.83;;
5612;SDS011;63463;53.586;9.928;2023-12-20T00:37:11;118.67;;;9.57;;
5612;SDS011;63463;53.586;9.928;2023-12-20T00:39:37;127.90;;;10.10;;
5612;SDS011;63463;53.586;9.928;2023-12-20T00:42:03;124.23;;;10.00;;
5612;SDS011;63463;53.586;9.928;2023-12-20T00:44:29;119.07;;;9.47;;
5612;SDS011;63463;53.586;9.928;2023-12-20T00:46:55;111.07;;;9.77;;
5612;SDS011;63463;53.586;9.928;2023-12-20T00:49:21;114.90;;;9.33;;
5612;SDS011;63463;53.586;9.928;2023-12-20T00:51:47;126.30;;;9.63;;
5612;SDS011;63463;53.586;9.928;2023-12-20T00:54:15;155.33;;;10.43;;
5612;SDS011;63463;53.586;9.928;2023-12-20T00:56:41;112.00;;;8.93;;
5612;SDS011;63463;53.586;9.928;2023-12-20T00:59:07;138.37;;;11.10;;
5612;SDS011;63463;53.586;9.928;2023-12-20T01:01:33;141.97;;;10.63;;
5612;SDS011;63463;53.586;9.928;2023-12-20T01:03:59;150.57;;;11.43;;
5612;SDS011;63463;53.586;9.928;2023-12-20T01:06:26;134.07;;;10.17;;
5612;SDS011;63463;53.586;9.928;2023-12-20T01:08:52;123.87;;;9.70;;
5612;SDS011;63463;53.586;9.928;2023-12-20T01:11:18;139.23;;;10.90;;
5612;SDS011;63463;53.586;9.928;2023-12-20T01:13:45;121.27;;;9.87;;
5612;SDS011;63463;53.586;9.928;2023-12-20T01:16:12;117.27;;;9.47;;
5612;SDS011;63463;53.586;9.928;2023-12-20T01:18:38;126.50;;;9.97;;
5612;SDS011;63463;53.586;9.928;2023-12-20T01:21:04;143.37;;;10.77;;
5612;SDS011;63463;53.586;9.928;2023-12-20T01:23:31;129.57;;;10.70;;
5612;SDS011;63463;53.586;9.928;2023-12-20T01:25:58;124.63;;;10.30;;
5612;SDS011;63463;53.586;9.928;2023-12-20T01:28:27;130.37;;;10.60;;
5612;SDS011;63463;53.586;9.928;2023-12-20T01:30:57;117.93;;;10.00;;
5612;SDS011;63463;53.586;9.928;2023-12-20T01:33:23;123.23;;;10.30;;
5612;SDS011;63463;53.586;9.928;2023-12-20T01:35:50;126.60;;;10.50;;
5612;SDS011;63463;53.586;9.928;2023-12-20T01:38:16;144.20;;;10.57;;
5612;SDS011;63463;53.586;9.928;2023-12-20T01:40:43;124.77;;;10.37;;
5612;SDS011;63463;53.586;9.928;2023-12-20T01:43:11;117.00;;;9.37;;
5612;SDS011;63463;53.586;9.928;2023-12-20T01:45:37;138.13;;;12.30;;
5612;SDS011;63463;53.586;9.928;2023-12-20T01:48:03;127.87;;;10.43;;
5612;SDS011;63463;53.586;9.928;2023-12-20T01:50:30;126.73;;;10.20;;
5612;SDS011;63463;53.586;9.928;2023-12-20T01:53:00;121.10;;;9.87;;
5612;SDS011;63463;53.586;9.928;2023-12-20T01:55:27;150.67;;;10.73;;
5612;SDS011;63463;53.586;9.928;2023-12-20T01:57:53;132.17;;;11.70;;
5612;SDS011;63463;53.586;9.928;2023-12-20T02:00:19;140.53;;;11.00;;
5612;SDS011;63463;53.586;9.928;2023-12-20T02:02:48;138.93;;;12.30;;
5612;SDS011;63463;53.586;9.928;2023-12-20T02:05:16;133.80;;;11.10;;
5612;SDS011;63463;53.586;9.928;2023-12-20T02:07:43;138.70;;;11.83;;
5612;SDS011;63463;53.586;9.928;2023-12-20T02:10:09;132.67;;;10.50;;
5612;SDS011;63463;53.586;9.928;2023-12-20T02:12:35;160.83;;;13.10;;
5612;SDS011;63463;53.586;9.928;2023-12-20T02:15:01;157.10;;;11.43;;
5612;SDS011;63463;53.586;9.928;2023-12-20T02:17:27;139.83;;;12.00;;
5612;SDS011;63463;53.586;9.928;2023-12-20T02:19:54;139.20;;;11.10;;
5612;SDS011;63463;53.586;9.928;2023-12-20T02:22:21;124.63;;;11.03;;
5612;SDS011;63463;53.586;9.928;2023-12-20T02:24:46;142.80;;;11.17;;
5612;SDS011;63463;53.586;9.928;2023-12-20T02:27:14;123.40;;;11.37;;
5612;SDS011;63463;53.586;9.928;2023-12-20T02:29:41;140.93;;;11.03;;
5612;SDS011;63463;53.586;9.928;2023-12-20T02:32:07;129.87;;;10.63;;
5612;SDS011;63463;53.586;9.928;2023-12-20T02:34:33;135.73;;;11.47;;
5612;SDS011;63463;53.586;9.928;2023-12-20T02:36:59;148.43;;;11.27;;
5612;SDS011;63463;53.586;9.928;2023-12-20T02:39:25;132.73;;;10.43;;
5612;SDS011;63463;53.586;9.928;2023-12-20T02:41:51;132.90;;;12.30;;
5612;SDS011;63463;53.586;9.928;2023-12-20T02:44:17;145.27;;;11.63;;
5612;SDS011;63463;53.586;9.928;2023-12-20T02:46:43;124.67;;;11.87;;
5612;SDS011;63463;53.586;9.928;2023-12-20T02:49:09;122.80;;;10.30;;
5612;SDS011;63463;53.586;9.928;2023-12-20T02:51:35;154.03;;;14.10;;
5612;SDS011;63463;53.586;9.928;2023-12-20T02:54:03;143.93;;;11.53;;
5612;SDS011;63463;53.586;9.928;2023-12-20T02:56:30;138.90;;;11.50;;
5612;SDS011;63463;53.586;9.928;2023-12-20T02:58:56;138.63;;;11.43;;
5612;SDS011;63463;53.586;9.928;2023-12-20T03:01:22;141.80;;;11.30;;
5612;SDS011;63463;53.586;9.928;2023-12-20T03:03:48;138.27;;;10.90;;
5612;SDS011;63463;53.586;9.928;2023-12-20T03:06:20;176.00;;;11.13;;
5612;SDS011;63463;53.586;9.928;2023-12-20T03:08:46;130.80;;;11.27;;
5612;SDS011;63463;53.586;9.928;2023-12-20T03:11:12;130.57;;;11.60;;
5612;SDS011;63463;53.586;9.928;2023-12-20T03:13:38;135.23;;;11.33;;
5612;SDS011;63463;53.586;9.928;2023-12-20T03:16:08;133.33;;;10.63;;
5612;SDS011;63463;53.586;9.928;2023-12-20T03:18:34;130.83;;;11.17;;
5612;SDS011;63463;53.586;9.928;2023-12-20T03:21:04;120.80;;;10.70;;
5612;SDS011;63463;53.586;9.928;2023-12-20T03:23:30;118.67;;;9.83;;
5612;SDS011;63463;53.586;9.928;2023-12-20T03:25:57;123.30;;;11.10;;
5612;SDS011;63463;53.586;9.928;2023-12-20T03:28:23;118.90;;;9.90;;
5612;SDS011;63463;53.586;9.928;2023-12-20T03:30:50;119.60;;;9.73;;
5612;SDS011;63463;53.586;9.928;2023-12-20T03:33:19;117.63;;;9.83;;
5612;SDS011;63463;53.586;9.928;2023-12-20T03:35:45;119.50;;;10.07;;
5612;SDS011;63463;53.586;9.928;2023-12-20T03:38:12;123.07;;;10.10;;
5612;SDS011;63463;53.586;9.928;2023-12-20T03:40:38;128.10;;;10.00;;
5612;SDS011;63463;53.586;9.928;2023-12-20T03:43:05;126.93;;;9.90;;
5612;SDS011;63463;53.586;9.928;2023-12-20T03:45:31;128.27;;;10.37;;
5612;SDS011;63463;53.586;9.928;2023-12-20T03:47:57;121.07;;;9.70;;
5612;SDS011;63463;53.586;9.928;2023-12-20T03:50:23;116.77;;;10.40;;
5612;SDS011;63463;53.586;9.928;2023-12-20T03:52:49;127.23;;;9.83;;
5612;SDS011;63463;53.586;9.928;2023-12-20T03:55:15;136.10;;;10.50;;
5612;SDS011;63463;53.586;9.928;2023-12-20T03:57:41;133.87;;;10.80;;
5612;SDS011;63463;53.586;9.928;2023-12-20T04:00:08;123.23;;;10.60;;
5612;SDS011;63463;53.586;9.928;2023-12-20T04:02:36;119.83;;;10.00;;
5612;SDS011;63463;53.586;9.928;2023-12-20T04:05:02;126.33;;;10.43;;
5612;SDS011;63463;53.586;9.928;2023-12-20T04:07:28;124.40;;;9.57;;
5612;SDS011;63463;53.586;9.928;2023-12-20T04:09:54;120.37;;;10.10;;
5612;SDS011;63463;53.586;9.928;2023-12-20T04:12:20;117.17;;;9.50;;
5612;SDS011;63463;53.586;9.928;2023-12-20T04:14:46;138.10;;;10.73;;
5612;SDS011;63463;53.586;9.928;2023-12-20T04:17:13;112.67;;;10.00;;
5612;SDS011;63463;53.586;9.928;2023-12-20T04:19:42;136.53;;;9.83;;
5612;SDS011;63463;53.586;9.928;2023-12-20T04:22:08;118.83;;;9.93;;
5612;SDS011;63463;53.586;9.928;2023-12-20T04:24:34;117.10;;;9.37;;
5612;SDS011;63463;53.586;9.928;2023-12-20T04:27:00;118.40;;;10.50;;
5612;SDS011;63463;53.586;9.928;2023-12-20T04:29:26;126.47;;;10.40;;
5612;SDS011;63463;53.586;9.928;2023-12-20T04:31:52;121.27;;;10.30;;
5612;SDS011;63463;53.586;9.928;2023-12-20T04:34:20;130.60;;;10.90;;
5612;SDS011;63463;53.586;9.928;2023-12-20T04:36:46;127.90;;;11.03;;
5612;SDS011;63463;53.586;9.928;2023-12-20T04:39:12;142.83;;;11.37;;
5612;SDS011;63463;53.586;9.928;2023-12-20T04:41:40;121.10;;;10.90;;
5612;SDS011;63463;53.586;9.928;2023-12-20T04:44:06;131.00;;;10.67;;
5612;SDS011;63463;53.586;9.928;2023-12-20T04:46:32;128.70;;;10.53;;
5612;SDS011;63463;53.586;9.928;2023-12-20T04:48:58;122.53;;;10.17;;
5612;SDS011;63463;53.586;9.928;2023-12-20T04:51:24;130.63;;;10.47;;
5612;SDS011;63463;53.586;9.928;2023-12-20T04:53:51;121.80;;;10.70;;
5612;SDS011;63463;53.586;9.928;2023-12-20T04:56:17;121.57;;;10.27;;
5612;SDS011;63463;53.586;9.928;2023-12-20T04:58:43;123.03;;;10.40;;
5612;SDS011;63463;53.586;9.928;2023-12-20T05:01:09;126.07;;;10.00;;
5612;SDS011;63463;53.586;9.928;2023-12-20T05:03:35;124.60;;;10.53;;
5612;SDS011;63463;53.586;9.928;2023-12-20T05:06:01;121.33;;;9.90;;
5612;SDS011;63463;53.586;9.928;2023-12-20T05:08:27;136.70;;;10.80;;
5612;SDS011;63463;53.586;9.928;2023-12-20T05:10:56;121.73;;;9.63;;
5612;SDS011;63463;53.586;9.928;2023-12-20T05:13:22;117.97;;;10.13;;
5612;SDS011;63463;53.586;9.928;2023-12-20T05:15:48;130.73;;;10.83;;
5612;SDS011;63463;53.586;9.928;2023-12-20T05:18:14;123.77;;;10.77;;
5612;SDS011;63463;53.586;9.928;2023-12-20T05:20:42;121.50;;;9.90;;
5612;SDS011;63463;53.586;9.928;2023-12-20T05:23:08;115.10;;;9.63;;
5612;SDS011;63463;53.586;9.928;2023-12-20T05:25:40;132.77;;;10.87;;
5612;SDS011;63463;53.586;9.928;2023-12-20T05:28:06;119.53;;;10.87;;
5612;SDS011;63463;53.586;9.928;2023-12-20T05:30:32;146.60;;;12.10;;
5612;SDS011;63463;53.586;9.928;2023-12-20T05:32:59;117.27;;;10.53;;
5612;SDS011;63463;53.586;9.928;2023-12-20T05:35:25;117.10;;;10.23;;
5612;SDS011;63463;53.586;9.928;2023-12-20T05:37:51;126.90;;;10.90;;
5612;SDS011;63463;53.586;9.928;2023-12-20T05:40:17;117.13;;;10.60;;
5612;SDS011;63463;53.586;9.928;2023-12-20T05:42:43;135.20;;;11.93;;
5612;SDS011;63463;53.586;9.928;2023-12-20T05:45:09;116.73;;;10.63;;
5612;SDS011;63463;53.586;9.928;2023-12-20T05:47:36;114.97;;;10.47;;
5612;SDS011;63463;53.586;9.928;2023-12-20T05:50:02;143.37;;;11.40;;
5612;SDS011;63463;53.586;9.928;2023-12-20T05:52:29;127.23;;;10.37;;
5612;SDS011;63463;53.586;9.928;2023-12-20T05:54:55;120.20;;;10.80;;
5612;SDS011;63463;53.586;9.928;2023-12-20T05:57:22;118.87;;;9.80;;
5612;SDS011;63463;53.586;9.928;2023-12-20T05:59:48;139.10;;;11.23;;
5612;SDS011;63463;53.586;9.928;2023-12-20T06:02:14;127.23;;;11.07;;
5612;SDS011;63463;53.586;9.928;2023-12-20T06:04:43;126.33;;;10.57;;
5612;SDS011;63463;53.586;9.928;2023-12-20T06:07:12;124.13;;;11.20;;
5612;SDS011;63463;53.586;9.928;2023-12-20T06:09:39;115.20;;;10.80;;
5612;SDS011;63463;53.586;9.928;2023-12-20T06:12:07;125.33;;;10.73;;
5612;SDS011;63463;53.586;9.928;2023-12-20T06:14:36;122.77;;;10.60;;
5612;SDS011;63463;53.586;9.928;2023-12-20T06:17:02;133.20;;;11.03;;
5612;SDS011;63463;53.586;9.928;2023-12-20T06:19:28;118.67;;;10.63;;
5612;SDS011;63463;53.586;9.928;2023-12-20T06:21:54;119.43;;;10.30;;
5612;SDS011;63463;53.586;9.928;2023-12-20T06:24:20;126.47;;;10.03;;
5612;SDS011;63463;53.586;9.928;2023-12-20T06:26:46;144.67;;;11.03;;
5612;SDS011;63463;53.586;9.928;2023-12-20T06:29:13;125.50;;;10.40;;
5612;SDS011;63463;53.586;9.928;2023-12-20T06:31:38;137.03;;;11.40;;
5612;SDS011;63463;53.586;9.928;2023-12-20T06:34:05;130.97;;;10.73;;
5612;SDS011;63463;53.586;9.928;2023-12-20T06:36:31;127.53;;;11.80;;
5612;SDS011;63463;53.586;9.928;2023-12-20T06:38:57;126.97;;;10.73;;
5612;SDS011;63463;53.586;9.928;2023-12-20T06:41:23;118.07;;;10.00;;
5612;SDS011;63463;53.586;9.928;2023-12-20T06:43:49;116.70;;;9.97;;
5612;SDS011;63463;53.586;9.928;2023-12-20T06:46:17;126.77;;;12.20;;
5612;SDS011;63463;53.586;9.928;2023-12-20T06:48:43;123.90;;;10.17;;
5612;SDS011;63463;53.586;9.928;2023-12-20T06:51:15;126.90;;;11.13;;
5612;SDS011;63463;53.586;9.928;2023-12-20T06:53:42;123.47;;;11.00;;
5612;SDS011;63463;53.586;9.928;2023-12-20T06:56:11;122.97;;;10.40;;
5612;SDS011;63463;53.586;9.928;2023-12-20T06:58:38;136.70;;;11.10;;
5612;SDS011;63463;53.586;9.928;2023-12-20T07:01:04;115.70;;;10.33;;
5612;SDS011;63463;53.586;9.928;2023-12-20T07:03:30;115.13;;;9.73;;
5612;SDS011;63463;53.586;9.928;2023-12-20T07:05:57;126.60;;;10.23;;
5612;SDS011;63463;53.586;9.928;2023-12-20T07:08:23;140.33;;;10.70;;
5612;SDS011;63463;53.586;9.928;2023-12-20T07:10:49;124.03;;;10.10;;
5612;SDS011;63463;53.586;9.928;2023-12-20T07:13:15;119.70;;;10.17;;
5612;SDS011;63463;53.586;9.928;2023-12-20T07:15:42;120.47;;;10.03;;
5612;SDS011;63463;53.586;9.928;2023-12-20T07:18:08;110.50;;;9.33;;
5612;SDS011;63463;53.586;9.928;2023-12-20T07:20:35;159.47;;;10.87;;
5612;SDS011;63463;53.586;9.928;2023-12-20T07:23:01;133.77;;;11.30;;
5612;SDS011;63463;53.586;9.928;2023-12-20T07:25:27;117.80;;;10.20;;
5612;SDS011;63463;53.586;9.928;2023-12-20T07:27:54;116.40;;;8.70;;
5612;SDS011;63463;53.586;9.928;2023-12-20T07:30:20;131.10;;;10.57;;
5612;SDS011;63463;53.586;9.928;2023-12-20T07:32:46;123.77;;;9.90;;
5612;SDS011;63463;53.586;9.928;2023-12-20T07:35:14;126.90;;;10.00;;
5612;SDS011;63463;53.586;9.928;2023-12-20T07:37:40;129.27;;;10.30;;
5612;SDS011;63463;53.586;9.928;2023-12-20T07:40:06;147.90;;;11.23;;
5612;SDS011;63463;53.586;9.928;2023-12-20T07:42:33;113.83;;;9.67;;
5612;SDS011;63463;53.586;9.928;2023-12-20T07:44:59;118.30;;;10.23;;
5612;SDS011;63463;53.586;9.928;2023-12-20T07:47:25;130.67;;;10.10;;
5612;SDS011;63463;53.586;9.928;2023-12-20T07:49:51;117.20;;;9.47;;
5612;SDS011;63463;53.586;9.928;2023-12-20T07:52:17;119.93;;;9.63;;
5612;SDS011;63463;53.586;9.928;2023-12-20T07:54:44;128.37;;;10.60;;
5612;SDS011;63463;53.586;9.928;2023-12-20T07:57:10;121.70;;;10.00;;
5612;SDS011;63463;53.586;9.928;2023-12-20T07:59:36;133.30;;;10.30;;
5612;SDS011;63463;53.586;9.928;2023-12-20T08:02:02;118.97;;;9.50;;
5612;SDS011;63463;53.586;9.928;2023-12-20T08:04:29;116.93;;;9.90;;
5612;SDS011;63463;53.586;9.928;2023-12-20T08:06:55;112.77;;;9.67;;
5612;SDS011;63463;53.586;9.928;2023-12-20T08:09:21;112.23;;;9.63;;
5612;SDS011;63463;53.586;9.928;2023-12-20T08:11:49;119.13;;;9.63;;
5612;SDS011;63463;53.586;9.928;2023-12-20T08:14:15;127.17;;;10.07;;
5612;SDS011;63463;53.586;9.928;2023-12-20T08:16:41;121.27;;;9.87;;
5612;SDS011;63463;53.586;9.928;2023-12-20T08:19:07;128.23;;;10.10;;
5612;SDS011;63463;53.586;9.928;2023-12-20T08:21:33;134.60;;;10.73;;
5612;SDS011;63463;53.586;9.928;2023-12-20T08:23:59;127.93;;;9.93;;
5612;SDS011;63463;53.586;9.928;2023-12-20T08:26:26;132.63;;;10.80;;
5612;SDS011;63463;53.586;9.928;2023-12-20T08:28:52;121.40;;;10.57;;
5612;SDS011;63463;53.586;9.928;2023-12-20T08:31:18;129.97;;;11.23;;
5612;SDS011;63463;53.586;9.928;2023-12-20T08:33:45;125.43;;;9.57;;
5612;SDS011;63463;53.586;9.928;2023-12-20T08:36:12;130.77;;;9.80;;
5612;SDS011;63463;53.586;9.928;2023-12-20T08:38:38;129.40;;;11.30;;
5612;SDS011;63463;53.586;9.928;2023-12-20T08:41:04;117.40;;;9.63;;
5612;SDS011;63463;53.586;9.928;2023-12-20T08:43:30;118.27;;;9.20;;
5612;SDS011;63463;53.586;9.928;2023-12-20T08:45:56;117.83;;;9.60;;
5612;SDS011;63463;53.586;9.928;2023-12-20T08:48:22;113.23;;;9.00;;
5612;SDS011;63463;53.586;9.928;2023-12-20T08:50:48;121.63;;;10.10;;
5612;SDS011;63463;53.586;9.928;2023-12-20T08:53:18;123.93;;;10.40;;
5612;SDS011;63463;53.586;9.928;2023-12-20T08:55:46;120.77;;;9.17;;
5612;SDS011;63463;53.586;9.928;2023-12-20T08:58:12;113.63;;;9.90;;
5612;SDS011;63463;53.586;9.928;2023-12-20T09:00:40;115.53;;;10.00;;
5612;SDS011;63463;53.586;9.928;2023-12-20T09:03:06;127.37;;;10.77;;
5612;SDS011;63463;53.586;9.928;2023-12-20T09:05:33;121.40;;;9.60;;
5612;SDS011;63463;53.586;9.928;2023-12-20T09:07:59;123.93;;;9.70;;
5612;SDS011;63463;53.586;9.928;2023-12-20T09:10:25;129.03;;;10.33;;
5612;SDS011;63463;53.586;9.928;2023-12-20T09:12:51;111.80;;;10.07;;
5612;SDS011;63463;53.586;9.928;2023-12-20T09:15:21;132.37;;;9.70;;
5612;SDS011;63463;53.586;9.928;2023-12-20T09:17:47;120.30;;;9.50;;
5612;SDS011;63463;53.586;9.928;2023-12-20T09:20:13;130.00;;;9.77;;
5612;SDS011;63463;53.586;9.928;2023-12-20T09:22:39;112.03;;;10.93;;
5612;SDS011;63463;53.586;9.928;2023-12-20T09:25:07;110.17;;;9.50;;
5612;SDS011;63463;53.586;9.928;2023-12-20T09:27:35;121.57;;;9.77;;
5612;SDS011;63463;53.586;9.928;2023-12-20T09:30:01;112.70;;;9.10;;
5612;SDS011;63463;53.586;9.928;2023-12-20T09:32:27;107.40;;;8.37;;
5612;SDS011;63463;53.586;9.928;2023-12-20T09:34:54;115.50;;;11.53;;
5612;SDS011;63463;53.586;9.928;2023-12-20T09:37:20;110.17;;;8.30;;
5612;SDS011;63463;53.586;9.928;2023-12-20T09:39:46;119.30;;;8.73;;
5612;SDS011;63463;53.586;9.928;2023-12-20T09:42:12;112.10;;;8.77;;
5612;SDS011;63463;53.586;9.928;2023-12-20T09:44:44;106.33;;;8.33;;
5612;SDS011;63463;53.586;9.928;2023-12-20T09:47:10;107.27;;;8.70;;
5612;SDS011;63463;53.586;9.928;2023-12-20T09:49:37;111.93;;;8.40;;
5612;SDS011;63463;53.586;9.928;2023-12-20T09:52:04;104.70;;;8.07;;
5612;SDS011;63463;53.586;9.928;2023-12-20T09:54:33;111.73;;;8.93;;
5612;SDS011;63463;53.586;9.928;2023-12-20T09:56:59;107.13;;;8.30;;
5612;SDS011;63463;53.586;9.928;2023-12-20T09:59:25;106.37;;;8.30;;
5612;SDS011;63463;53.586;9.928;2023-12-20T10:01:51;112.30;;;8.00;;
5612;SDS011;63463;53.586;9.928;2023-12-20T10:04:22;109.50;;;8.70;;
5612;SDS011;63463;53.586;9.928;2023-12-20T10:06:48;106.77;;;8.13;;
5612;SDS011;63463;53.586;9.928;2023-12-20T10:09:15;107.70;;;8.37;;
5612;SDS011;63463;53.586;9.928;2023-12-20T10:11:41;108.33;;;8.30;;
5612;SDS011;63463;53.586;9.928;2023-12-20T10:14:07;110.20;;;8.30;;
5612;SDS011;63463;53.586;9.928;2023-12-20T10:16:33;106.97;;;8.40;;
5612;SDS011;63463;53.586;9.928;2023-12-20T10:19:00;105.67;;;7.90;;
5612;SDS011;63463;53.586;9.928;2023-12-20T10:21:26;108.30;;;8.50;;
5612;SDS011;63463;53.586;9.928;2023-12-20T10:23:53;105.60;;;8.17;;
5612;SDS011;63463;53.586;9.928;2023-12-20T10:26:20;118.30;;;8.10;;
5612;SDS011;63463;53.586;9.928;2023-12-20T10:28:46;108.07;;;8.87;;
5612;SDS011;63463;53.586;9.928;2023-12-20T10:31:25;114.43;;;8.60;;
5612;SDS011;63463;53.586;9.928;2023-12-20T10:33:52;104.90;;;7.90;;
5612;SDS011;63463;53.586;9.928;2023-12-20T10:36:18;105.90;;;8.07;;
5612;SDS011;63463;53.586;9.928;2023-12-20T10:38:44;106.80;;;8.20;;
5612;SDS011;63463;53.586;9.928;2023-12-20T10:41:11;113.13;;;8.50;;
5612;SDS011;63463;53.586;9.928;2023-12-20T10:43:38;116.40;;;8.20;;
5612;SDS011;63463;53.586;9.928;2023-12-20T10:46:04;114.83;;;9.70;;
5612;SDS011;63463;53.586;9.928;2023-12-20T10:48:30;108.20;;;8.40;;
5612;SDS011;63463;53.586;9.928;2023-12-20T10:50:57;107.20;;;8.80;;
5612;SDS011;63463;53.586;9.928;2023-12-20T10:53:24;109.90;;;8.37;;
5612;SDS011;63463;53.586;9.928;2023-12-20T10:55:51;112.50;;;8.67;;
5612;SDS011;63463;53.586;9.928;2023-12-20T10:58:18;122.33;;;8.93;;
5612;SDS011;63463;53.586;9.928;2023-12-20T11:00:46;108.77;;;7.70;;
5612;SDS011;63463;53.586;9.928;2023-12-20T11:03:13;112.93;;;9.50;;
5612;SDS011;63463;53.586;9.928;2023-12-20T11:10:49;108.73;;;8.50;;
5612;SDS011;63463;53.586;9.928;2023-12-20T11:13:20;108.70;;;8.97;;
5612;SDS011;63463;53.586;9.928;2023-12-20T11:15:48;108.27;;;8.70;;
5612;SDS011;63463;53.586;9.928;2023-12-20T11:18:15;114.30;;;8.70;;
5612;SDS011;63463;53.586;9.928;2023-12-20T11:20:43;113.20;;;8.63;;
5612;SDS011;63463;53.586;9.928;2023-12-20T11:23:10;105.43;;;8.00;;
5612;SDS011;63463;53.586;9.928;2023-12-20T11:25:51;118.90;;;9.60;;
5612;SDS011;63463;53.586;9.928;2023-12-20T11:28:20;117.13;;;8.87;;
5612;SDS011;63463;53.586;9.928;2023-12-20T11:30:47;111.70;;;8.80;;
5612;SDS011;63463;53.586;9.928;2023-12-20T11:33:14;130.57;;;9.90;;
5612;SDS011;63463;53.586;9.928;2023-12-20T11:38:55;114.30;;;8.40;;
5612;SDS011;63463;53.586;9.928;2023-12-20T11:41:22;123.43;;;10.20;;
5612;SDS011;63463;53.586;9.928;2023-12-20T11:43:55;125.80;;;9.57;;
5612;SDS011;63463;53.586;9.928;2023-12-20T11:46:21;114.00;;;9.30;;
5612;SDS011;63463;53.586;9.928;2023-12-20T11:48:47;109.57;;;10.00;;
5612;SDS011;63463;53.586;9.928;2023-12-20T11:51:13;116.40;;;8.93;;
5612;SDS011;63463;53.586;9.928;2023-12-20T11:53:41;117.47;;;9.93;;
5612;SDS011;63463;53.586;9.928;2023-12-20T11:56:07;124.57;;;9.27;;
5612;SDS011;63463;53.586;9.928;2023-12-20T11:58:34;119.60;;;9.90;;
5612;SDS011;63463;53.586;9.928;2023-12-20T12:01:01;125.03;;;10.63;;
5612;SDS011;63463;53.586;9.928;2023-12-20T12:03:32;123.33;;;10.10;;
5612;SDS011;63463;53.586;9.928;2023-12-20T12:05:58;124.27;;;9.53;;
5612;SDS011;63463;53.586;9.928;2023-12-20T12:08:26;121.03;;;9.50;;
5612;SDS011;63463;53.586;9.928;2023-12-20T12:10:52;112.60;;;9.60;;
5612;SDS011;63463;53.586;9.928;2023-12-20T12:13:18;117.60;;;10.00;;
5612;SDS011;63463;53.586;9.928;2023-12-20T12:15:44;129.23;;;9.17;;
5612;SDS011;63463;53.586;9.928;2023-12-20T12:18:10;123.40;;;9.90;;
5612;SDS011;63463;53.586;9.928;2023-12-20T12:20:36;118.03;;;8.83;;
5612;SDS011;63463;53.586;9.928;2023-12-20T12:23:03;125.80;;;9.80;;
5612;SDS011;63463;53.586;9.928;2023-12-20T12:25:30;126.33;;;9.90;;
5612;SDS011;63463;53.586;9.928;2023-12-20T12:27:58;122.90;;;9.97;;
5612;SDS011;63463;53.586;9.928;2023-12-20T12:30:24;116.70;;;9.33;;
5612;SDS011;63463;53.586;9.928;2023-12-20T12:32:54;114.33;;;9.70;;
5612;SDS011;63463;53.586;9.928;2023-12-20T12:35:22;118.83;;;10.30;;
5612;SDS011;63463;53.586;9.928;2023-12-20T12:37:48;121.57;;;9.70;;
5612;SDS011;63463;53.586;9.928;2023-12-20T12:40:15;125.97;;;10.00;;
5612;SDS011;63463;53.586;9.928;2023-12-20T12:42:42;122.97;;;9.70;;
5612;SDS011;63463;53.586;9.928;2023-12-20T12:45:08;113.53;;;9.20;;
5612;SDS011;63463;53.586;9.928;2023-12-20T12:47:35;127.57;;;10.40;;
5612;SDS011;63463;53.586;9.928;2023-12-20T12:50:01;110.77;;;9.20;;
5612;SDS011;63463;53.586;9.928;2023-12-20T12:52:30;116.73;;;9.70;;
5612;SDS011;63463;53.586;9.928;2023-12-20T12:54:56;120.27;;;9.47;;
5612;SDS011;63463;53.586;9.928;2023-12-20T12:57:22;130.70;;;9.77;;
5612;SDS011;63463;53.586;9.928;2023-12-20T12:59:50;130.73;;;10.00;;
5612;SDS011;63463;53.586;9.928;2023-12-20T13:02:16;116.57;;;9.90;;
5612;SDS011;63463;53.586;9.928;2023-12-20T13:04:42;125.13;;;10.17;;
5612;SDS011;63463;53.586;9.928;2023-12-20T13:07:08;115.60;;;9.00;;
5612;SDS011;63463;53.586;9.928;2023-12-20T13:09:38;123.37;;;9.90;;
5612;SDS011;63463;53.586;9.928;2023-12-20T13:12:04;125.47;;;9.90;;
5612;SDS011;63463;53.586;9.928;2023-12-20T13:14:33;128.23;;;10.87;;
5612;SDS011;63463;53.586;9.928;2023-12-20T13:17:00;116.50;;;10.63;;
5612;SDS011;63463;53.586;9.928;2023-12-20T13:19:26;125.07;;;10.73;;
5612;SDS011;63463;53.586;9.928;2023-12-20T13:21:53;134.20;;;11.00;;
5612;SDS011;63463;53.586;9.928;2023-12-20T13:24:18;122.37;;;9.97;;
5612;SDS011;63463;53.586;9.928;2023-12-20T13:26:45;141.03;;;11.33;;
5612;SDS011;63463;53.586;9.928;2023-12-20T13:29:11;147.33;;;11.60;;
5612;SDS011;63463;53.586;9.928;2023-12-20T13:31:37;133.53;;;10.63;;
5612;SDS011;63463;53.586;9.928;2023-12-20T13:34:05;134.80;;;10.33;;
5612;SDS011;63463;53.586;9.928;2023-12-20T13:36:31;126.77;;;10.50;;
5612;SDS011;63463;53.586;9.928;2023-12-20T13:38:57;139.47;;;11.33;;
5612;SDS011;63463;53.586;9.928;2023-12-20T13:41:27;130.90;;;10.37;;
5612;SDS011;63463;53.586;9.928;2023-12-20T13:43:53;136.77;;;12.03;;
5612;SDS011;63463;53.586;9.928;2023-12-20T13:46:19;123.40;;;10.77;;
5612;SDS011;63463;53.586;9.928;2023-12-20T13:48:45;134.00;;;10.17;;
5612;SDS011;63463;53.586;9.928;2023-12-20T13:51:11;145.27;;;11.40;;
5612;SDS011;63463;53.586;9.928;2023-12-20T13:53:40;148.43;;;11.43;;
5612;SDS011;63463;53.586;9.928;2023-12-20T13:56:06;135.87;;;9.90;;
5612;SDS011;63463;53.586;9.928;2023-12-20T13:58:35;125.53;;;10.77;;
5612;SDS011;63463;53.586;9.928;2023-12-20T14:01:01;129.17;;;11.60;;
5612;SDS011;63463;53.586;9.928;2023-12-20T14:03:27;129.23;;;10.53;;
5612;SDS011;63463;53.586;9.928;2023-12-20T14:05:53;127.83;;;10.97;;
5612;SDS011;63463;53.586;9.928;2023-12-20T14:08:19;137.20;;;11.63;;
5612;SDS011;63463;53.586;9.928;2023-12-20T14:10:45;132.80;;;11.87;;
5612;SDS011;63463;53.586;9.928;2023-12-20T14:13:11;126.30;;;10.90;;
5612;SDS011;63463;53.586;9.928;2023-12-20T14:15:37;149.63;;;12.70;;
5612;SDS011;63463;53.586;9.928;2023-12-20T14:18:06;144.10;;;11.77;;
5612;SDS011;63463;53.586;9.928;2023-12-20T14:20:33;124.40;;;10.83;;
5612;SDS011;63463;53.586;9.928;2023-12-20T14:23:03;123.87;;;11.50;;
5612;SDS011;63463;53.586;9.928;2023-12-20T14:25:29;122.47;;;10.33;;
5612;SDS011;63463;53.586;9.928;2023-12-20T14:27:56;149.17;;;11.70;;
5612;SDS011;63463;53.586;9.928;2023-12-20T14:30:23;127.00;;;11.60;;